createdAt,value
2018-06-12T00:00:52.543Z,89.60
2018-06-12T00:03:20.999Z,89.50
2018-06-12T00:05:49.559Z,89.20
2018-06-12T00:08:17.993Z,89.20
2018-06-12T00:10:46.479Z,89.40
2018-06-12T00:13:14.921Z,89.30
2018-06-12T00:15:43.468Z,88.90
2018-06-12T00:18:11.997Z,89.20
2018-06-12T00:20:41.585Z,89.00
2018-06-12T00:23:10.708Z,89.80
2018-06-12T00:25:39.887Z,89.30
2018-06-12T00:28:09.284Z,89.40
2018-06-12T00:30:37.850Z,89.30
2018-06-12T00:33:06.603Z,89.20
2018-06-12T00:35:35.103Z,88.90
2018-06-12T00:38:03.628Z,89.20
2018-06-12T00:40:32.199Z,88.80
2018-06-12T00:43:00.653Z,88.90
2018-06-12T00:45:29.394Z,89.00
2018-06-12T00:47:57.988Z,89.10
2018-06-12T00:50:26.608Z,89.60
2018-06-12T00:52:55.069Z,89.90
2018-06-12T00:55:23.666Z,90.00
2018-06-12T00:57:52.221Z,90.10
2018-06-12T01:00:20.810Z,90.00
2018-06-12T01:02:49.344Z,90.00
2018-06-12T01:05:17.881Z,89.90
2018-06-12T01:07:46.298Z,89.70
2018-06-12T01:10:14.801Z,90.00
2018-06-12T01:12:43.318Z,90.00
2018-06-12T01:15:11.947Z,89.70
2018-06-12T01:17:41.029Z,90.00
2018-06-12T01:20:10.213Z,89.80
2018-06-12T01:22:39.351Z,89.70
2018-06-12T01:25:08.201Z,89.40
2018-06-12T01:27:36.733Z,90.10
2018-06-12T01:30:06.270Z,89.80
2018-06-12T01:32:34.776Z,89.80
2018-06-12T01:35:03.606Z,89.10
2018-06-12T01:37:32.182Z,89.30
2018-06-12T01:40:00.797Z,89.00
2018-06-12T01:42:29.240Z,89.20
2018-06-12T01:44:57.935Z,89.70
2018-06-12T01:47:26.484Z,89.50
2018-06-12T01:49:54.974Z,89.70
2018-06-12T01:52:23.496Z,90.00
2018-06-12T01:54:52.142Z,90.20
2018-06-12T01:57:21.610Z,90.10
2018-06-12T01:59:50.020Z,89.90
2018-06-12T02:02:18.513Z,90.10
2018-06-12T02:04:47.116Z,90.10
2018-06-12T02:07:15.691Z,90.00
2018-06-12T02:09:44.195Z,90.00
2018-06-12T02:12:12.753Z,90.00
2018-06-12T02:14:41.148Z,90.00
2018-06-12T02:17:09.802Z,90.40
2018-06-12T02:19:38.704Z,90.40
2018-06-12T02:22:07.322Z,90.40
2018-06-12T02:24:35.829Z,90.30
2018-06-12T02:27:04.312Z,90.40
2018-06-12T02:29:32.800Z,90.40
2018-06-12T02:32:01.335Z,90.40
2018-06-12T02:34:29.780Z,90.30
2018-06-12T02:36:58.376Z,90.20
2018-06-12T02:39:26.773Z,90.00
2018-06-12T02:41:55.445Z,90.00
2018-06-12T02:44:24.020Z,90.10
2018-06-12T02:46:52.561Z,90.30
2018-06-12T02:49:21.052Z,90.50
2018-06-12T02:51:49.675Z,90.60
2018-06-12T02:54:18.230Z,90.60
2018-06-12T02:56:46.818Z,90.60
2018-06-12T02:59:15.272Z,90.60
2018-06-12T03:01:43.849Z,90.60
2018-06-12T03:04:12.412Z,90.50
2018-06-12T03:06:40.879Z,90.50
2018-06-12T03:09:09.959Z,90.40
2018-06-12T03:11:38.826Z,90.50
2018-06-12T03:14:07.310Z,90.60
2018-06-12T03:16:35.809Z,90.70
2018-06-12T03:19:04.285Z,90.70
2018-06-12T03:21:32.798Z,90.80
2018-06-12T03:24:01.296Z,90.70
2018-06-12T03:26:29.891Z,90.80
2018-06-12T03:28:58.381Z,91.00
2018-06-12T03:31:26.947Z,90.90
2018-06-12T03:33:55.470Z,90.90
2018-06-12T03:36:24.067Z,90.90
2018-06-12T03:38:52.530Z,90.80
2018-06-12T03:41:21.088Z,90.80
2018-06-12T03:43:49.537Z,90.80
2018-06-12T03:46:18.278Z,90.80
2018-06-12T03:48:46.691Z,90.80
2018-06-12T03:51:15.238Z,90.50
2018-06-12T03:53:43.755Z,90.60
2018-06-12T03:56:12.229Z,90.60
2018-06-12T03:58:40.990Z,90.70
2018-06-12T04:01:10.246Z,90.90
2018-06-12T04:06:07.956Z,90.90
2018-06-12T04:08:36.491Z,91.00
2018-06-12T04:11:04.960Z,91.10
2018-06-12T04:13:33.396Z,91.10
2018-06-12T04:16:01.997Z,91.00
2018-06-12T04:18:30.490Z,90.90
2018-06-12T04:21:00.051Z,90.80
2018-06-12T04:23:28.488Z,90.80
2018-06-12T04:25:56.937Z,90.60
2018-06-12T04:28:25.434Z,90.60
2018-06-12T04:30:53.964Z,90.60
2018-06-12T04:33:22.464Z,90.50
2018-06-12T04:35:51.046Z,90.50
2018-06-12T04:38:19.512Z,90.50
2018-06-12T04:40:48.124Z,90.30
2018-06-12T04:43:16.975Z,90.30
2018-06-12T04:45:45.563Z,90.30
2018-06-12T04:48:14.048Z,90.30
2018-06-12T04:50:43.635Z,90.40
2018-06-12T04:53:12.156Z,90.40
2018-06-12T04:55:41.735Z,90.30
2018-06-12T04:58:10.851Z,90.40
2018-06-12T05:00:40.434Z,90.50
2018-06-12T05:03:09.816Z,90.60
2018-06-12T05:08:07.341Z,90.60
2018-06-12T05:10:35.940Z,90.60
2018-06-12T05:13:04.585Z,90.70
2018-06-12T05:15:33.116Z,90.60
2018-06-12T05:18:01.607Z,90.30
2018-06-12T05:20:30.207Z,90.30
2018-06-12T05:22:58.655Z,90.40
2018-06-12T05:25:27.257Z,90.10
2018-06-12T05:27:55.783Z,90.20
2018-06-12T05:30:25.284Z,90.30
2018-06-12T05:32:53.810Z,90.30
2018-06-12T05:35:22.342Z,89.80
2018-06-12T05:37:50.786Z,89.70
2018-06-12T05:40:19.290Z,90.00
2018-06-12T05:42:47.867Z,90.10
2018-06-12T05:45:16.385Z,90.10
2018-06-12T05:47:44.870Z,90.00
2018-06-12T05:50:13.290Z,90.20
2018-06-12T05:52:41.895Z,90.40
2018-06-12T05:55:11.017Z,90.60
2018-06-12T05:57:40.120Z,90.70
2018-06-12T06:00:10.178Z,90.80
2018-06-12T06:02:39.398Z,90.80
2018-06-12T06:05:07.971Z,90.70
2018-06-12T06:07:36.605Z,90.60
2018-06-12T06:10:05.745Z,90.60
2018-06-12T06:12:34.213Z,90.70
2018-06-12T06:15:02.782Z,90.90
2018-06-12T06:17:31.203Z,90.80
2018-06-12T06:19:59.668Z,90.80
2018-06-12T06:22:28.177Z,90.60
2018-06-12T06:24:56.920Z,90.60
2018-06-12T06:27:25.425Z,90.70
2018-06-12T06:29:53.920Z,90.70
2018-06-12T06:32:22.468Z,90.60
2018-06-12T06:34:51.010Z,90.70
2018-06-12T06:37:19.468Z,90.80
2018-06-12T06:39:47.947Z,90.90
2018-06-12T06:42:16.453Z,90.70
2018-06-12T06:44:45.348Z,90.70
2018-06-12T06:47:13.851Z,90.70
2018-06-12T06:49:42.457Z,90.60
2018-06-12T06:52:11.997Z,90.70
2018-06-12T06:54:41.742Z,90.70
2018-06-12T06:57:10.583Z,90.90
2018-06-12T06:59:39.999Z,90.60
2018-06-12T07:02:09.208Z,90.50
2018-06-12T07:04:38.016Z,90.60
2018-06-12T07:07:06.608Z,90.70
2018-06-12T07:09:35.117Z,90.60
2018-06-12T07:12:03.620Z,90.70
2018-06-12T07:14:32.110Z,90.70
2018-06-12T07:17:00.633Z,90.60
2018-06-12T07:19:29.126Z,90.40
2018-06-12T07:21:57.825Z,90.50
2018-06-12T07:24:26.401Z,90.60
2018-06-12T07:26:54.913Z,90.50
2018-06-12T07:29:23.437Z,90.20
2018-06-12T07:31:51.877Z,90.30
2018-06-12T07:34:20.529Z,90.60
2018-06-12T07:36:48.982Z,90.60
2018-06-12T07:39:17.540Z,90.60
2018-06-12T07:41:46.065Z,90.40
2018-06-12T07:45:39.654Z,90.60
2018-06-12T07:48:08.849Z,90.60
2018-06-12T07:50:37.316Z,90.90
2018-06-12T07:53:05.905Z,90.70
2018-06-12T07:55:34.410Z,90.70
2018-06-12T07:58:02.952Z,91.10
2018-06-12T08:00:31.460Z,90.70
2018-06-12T08:03:00.008Z,90.60
2018-06-12T08:05:28.396Z,90.30
2018-06-12T08:07:56.925Z,90.20
2018-06-12T08:10:25.418Z,90.10
2018-06-12T08:12:54.060Z,90.40
2018-06-12T08:15:22.817Z,90.50
2018-06-12T08:17:51.388Z,90.50
2018-06-12T08:20:19.933Z,90.50
2018-06-12T08:22:48.431Z,90.70
2018-06-12T08:25:16.983Z,90.40
2018-06-12T08:27:45.485Z,90.00
2018-06-12T08:32:43.721Z,90.50
2018-06-12T08:35:12.355Z,90.30
2018-06-12T08:37:40.810Z,90.20
2018-06-12T08:40:09.304Z,91.00
2018-06-12T08:42:37.802Z,90.90
2018-06-12T08:45:06.378Z,91.60
2018-06-12T08:50:02.962Z,90.60
2018-06-12T08:52:31.496Z,90.40
2018-06-12T08:54:59.945Z,90.60
2018-06-12T08:57:28.392Z,90.40
2018-06-12T08:59:56.926Z,90.30
2018-06-12T09:02:25.447Z,90.20
2018-06-12T09:04:54.043Z,90.10
2018-06-12T09:07:22.565Z,90.10
2018-06-12T09:09:51.065Z,90.20
2018-06-12T09:12:19.516Z,90.00
2018-06-12T09:14:48.009Z,90.00
2018-06-12T09:17:16.462Z,89.70
2018-06-12T09:19:45.008Z,90.00
2018-06-12T09:22:14.084Z,89.90
2018-06-12T09:24:43.459Z,90.50
2018-06-12T09:27:11.914Z,90.00
2018-06-12T09:29:40.456Z,90.00
2018-06-12T09:32:08.873Z,89.60
2018-06-12T09:34:37.373Z,89.70
2018-06-12T09:37:06.252Z,90.40
2018-06-12T09:39:34.705Z,89.90
2018-06-12T09:42:03.181Z,90.50
2018-06-12T09:44:31.916Z,90.00
2018-06-12T09:47:00.400Z,89.60
2018-06-12T09:49:28.953Z,90.20
2018-06-12T09:51:57.399Z,90.00
2018-06-12T09:54:26.041Z,89.70
2018-06-12T09:56:55.029Z,89.70
2018-06-12T09:59:23.607Z,89.70
2018-06-12T10:01:52.133Z,90.00
2018-06-12T10:04:20.706Z,90.00
2018-06-12T10:09:17.472Z,90.10
2018-06-12T10:11:45.931Z,89.50
2018-06-12T10:14:14.500Z,89.40
2018-06-12T10:16:42.933Z,89.40
2018-06-12T10:19:11.519Z,90.00
2018-06-12T10:21:40.052Z,89.70
2018-06-12T10:24:08.646Z,89.70
2018-06-12T10:26:37.063Z,90.10
2018-06-12T10:29:05.770Z,90.60
2018-06-12T10:31:34.300Z,90.10
2018-06-12T10:34:02.857Z,90.00
2018-06-12T10:36:31.322Z,89.20
2018-06-12T10:38:59.761Z,88.90
2018-06-12T10:41:28.194Z,88.10
2018-06-12T10:43:56.825Z,89.00
2018-06-12T10:46:25.222Z,88.80
2018-06-12T10:48:53.692Z,89.20
2018-06-12T10:51:22.132Z,89.90
2018-06-12T10:53:50.579Z,89.40
2018-06-12T10:56:19.040Z,90.00
2018-06-12T10:58:47.535Z,90.00
2018-06-12T11:01:16.009Z,90.00
2018-06-12T11:03:45.199Z,90.20
2018-06-12T11:06:13.977Z,89.50
2018-06-12T11:08:42.450Z,89.50
2018-06-12T11:11:10.909Z,90.00
2018-06-12T11:13:39.481Z,89.60
2018-06-12T11:16:07.968Z,89.50
2018-06-12T11:18:36.501Z,89.30
2018-06-12T11:21:05.004Z,89.10
2018-06-12T11:23:33.553Z,88.70
2018-06-12T11:26:02.062Z,89.50
2018-06-12T11:28:30.490Z,90.00
2018-06-12T11:30:58.970Z,89.40
2018-06-12T11:33:27.373Z,88.70
2018-06-12T11:35:55.872Z,88.60
2018-06-12T11:38:24.452Z,88.10
2018-06-12T11:40:52.972Z,88.10
2018-06-12T11:43:21.441Z,87.00
2018-06-12T11:45:49.884Z,87.40
2018-06-12T11:48:18.502Z,87.90
2018-06-12T11:50:47.000Z,88.30
2018-06-12T11:53:16.285Z,88.20
2018-06-12T11:55:44.755Z,88.60
2018-06-12T11:58:13.992Z,87.60
2018-06-12T12:00:42.557Z,87.70
2018-06-12T12:03:11.089Z,88.10
2018-06-12T12:05:39.531Z,88.30
2018-06-12T12:08:08.093Z,88.20
2018-06-12T12:10:36.524Z,88.20
2018-06-12T12:13:05.119Z,87.60
2018-06-12T12:15:33.577Z,87.80
2018-06-12T12:18:02.252Z,87.50
2018-06-12T12:20:30.723Z,87.30
2018-06-12T12:22:59.247Z,87.80
2018-06-12T12:25:27.696Z,87.30
2018-06-12T12:27:56.158Z,87.30
2018-06-12T12:30:24.674Z,85.50
2018-06-12T12:32:53.177Z,85.60
2018-06-12T12:35:21.690Z,84.50
2018-06-12T12:37:50.147Z,84.10
2018-06-12T12:40:18.627Z,85.30
2018-06-12T12:42:47.123Z,84.40
2018-06-12T12:45:16.055Z,84.20
2018-06-12T12:47:45.300Z,84.30
2018-06-12T12:50:13.733Z,85.40
2018-06-12T12:52:42.325Z,83.90
2018-06-12T12:55:10.817Z,84.00
2018-06-12T12:57:39.366Z,81.60
2018-06-12T13:00:07.803Z,83.70
2018-06-12T13:02:36.344Z,84.40
2018-06-12T13:05:05.593Z,84.30
2018-06-12T13:07:34.137Z,85.10
2018-06-12T13:10:02.607Z,85.90
2018-06-12T13:12:31.115Z,86.10
2018-06-12T13:14:59.660Z,86.00
2018-06-12T13:17:28.220Z,86.10
2018-06-12T13:19:56.694Z,86.00
2018-06-12T13:22:25.149Z,86.00
2018-06-12T13:24:53.553Z,85.90
2018-06-12T13:27:22.075Z,86.30
2018-06-12T13:29:50.509Z,86.00
2018-06-12T13:32:18.957Z,85.30
2018-06-12T13:34:47.402Z,85.50
2018-06-12T13:37:16.633Z,85.50
2018-06-12T13:39:45.988Z,84.70
2018-06-12T13:42:14.592Z,85.20
2018-06-12T13:44:43.080Z,86.30
2018-06-12T13:47:11.567Z,85.70
2018-06-12T13:49:39.998Z,85.50
2018-06-12T13:52:08.559Z,85.60
2018-06-12T13:54:37.122Z,86.40
2018-06-12T13:57:05.648Z,86.20
2018-06-12T13:59:34.148Z,85.80
2018-06-12T14:02:02.603Z,86.00
2018-06-12T14:04:31.112Z,85.60
2018-06-12T14:06:59.719Z,86.10
2018-06-12T14:09:28.409Z,86.20
2018-06-12T14:11:56.885Z,86.40
2018-06-12T14:14:25.392Z,86.50
2018-06-12T14:16:53.910Z,86.70
2018-06-12T14:19:22.786Z,87.60
2018-06-12T14:21:51.414Z,87.50
2018-06-12T14:24:19.816Z,87.60
2018-06-12T14:26:48.360Z,88.80
2018-06-12T14:29:16.817Z,88.10
2018-06-12T14:31:46.414Z,88.30
2018-06-12T14:34:15.608Z,88.40
2018-06-12T14:36:44.463Z,88.80
2018-06-12T14:39:13.760Z,88.80
2018-06-12T14:41:42.236Z,88.80
2018-06-12T14:44:10.690Z,88.90
2018-06-12T14:46:39.177Z,89.30
2018-06-12T14:49:07.662Z,89.70
2018-06-12T14:51:36.256Z,89.60
2018-06-12T14:54:04.815Z,89.60
2018-06-12T14:56:33.301Z,89.30
2018-06-12T14:59:01.787Z,89.20
2018-06-12T15:01:30.342Z,90.40
2018-06-12T15:03:58.773Z,90.30
2018-06-12T15:06:28.356Z,90.20
2018-06-12T15:08:57.499Z,90.30
2018-06-12T15:11:26.408Z,90.50
2018-06-12T15:13:55.703Z,90.30
2018-06-12T15:16:24.533Z,90.40
2018-06-12T15:18:52.944Z,90.30
2018-06-12T15:21:21.712Z,90.30
2018-06-12T15:23:50.179Z,90.40
2018-06-12T15:28:46.847Z,90.60
2018-06-12T15:31:15.300Z,90.40
2018-06-12T15:33:43.734Z,90.40
2018-06-12T15:36:12.224Z,90.40
2018-06-12T15:38:41.456Z,90.40
2018-06-12T15:41:10.011Z,90.20
2018-06-12T15:43:38.470Z,90.20
2018-06-12T15:46:07.069Z,90.60
2018-06-12T15:48:35.499Z,90.20
2018-06-12T15:51:04.070Z,90.30
2018-06-12T15:53:32.551Z,90.20
2018-06-12T15:56:01.126Z,90.20
2018-06-12T15:58:29.791Z,90.20
2018-06-12T16:00:58.266Z,90.30
2018-06-12T16:03:27.008Z,90.40
2018-06-12T16:05:56.203Z,90.50
2018-06-12T16:08:25.477Z,90.10
2018-06-12T16:10:54.056Z,90.20
2018-06-12T16:15:50.709Z,90.40
2018-06-12T16:18:19.160Z,90.40
2018-06-12T16:20:47.663Z,89.80
2018-06-12T16:23:16.236Z,90.20
2018-06-12T16:25:44.800Z,90.50
2018-06-12T16:28:13.305Z,90.60
2018-06-12T16:30:41.820Z,90.60
2018-06-12T16:33:10.833Z,90.50
2018-06-12T16:35:39.417Z,90.70
2018-06-12T16:38:07.839Z,90.80
2018-06-12T16:43:04.427Z,91.00
2018-06-12T16:45:32.991Z,90.90
2018-06-12T16:48:01.408Z,90.80
2018-06-12T16:50:29.929Z,90.90
2018-06-12T16:52:58.364Z,90.80
2018-06-12T16:55:27.656Z,90.90
2018-06-12T16:57:57.103Z,91.00
2018-06-12T17:00:26.323Z,91.50
2018-06-12T17:02:55.579Z,91.10
2018-06-12T17:05:24.166Z,91.20
2018-06-12T17:07:53.182Z,91.30
2018-06-12T17:10:21.797Z,91.10
2018-06-12T17:15:18.572Z,91.10
2018-06-12T17:17:47.742Z,91.10
2018-06-12T17:20:16.269Z,91.00
2018-06-12T17:22:44.804Z,91.10
2018-06-12T17:25:13.343Z,91.00
2018-06-12T17:27:41.814Z,91.00
2018-06-12T17:30:10.326Z,90.80
2018-06-12T17:32:38.764Z,90.80
2018-06-12T17:35:07.290Z,90.90
2018-06-12T17:37:35.758Z,90.90
2018-06-12T17:40:04.307Z,90.80
2018-06-12T17:42:33.093Z,90.70
2018-06-12T17:45:01.601Z,90.60
2018-06-12T17:47:29.991Z,90.60
2018-06-12T17:49:58.596Z,90.70
2018-06-12T17:52:27.865Z,90.80
2018-06-12T17:54:56.902Z,90.80
2018-06-12T17:57:25.516Z,90.90
2018-06-12T17:59:54.012Z,90.80
2018-06-12T18:02:22.456Z,90.80
2018-06-12T18:04:50.900Z,90.60
2018-06-12T18:07:19.395Z,90.50
2018-06-12T18:09:47.855Z,90.40
2018-06-12T18:12:16.349Z,90.30
2018-06-12T18:14:44.846Z,90.50
2018-06-12T18:17:13.318Z,90.20
2018-06-12T18:19:41.860Z,90.10
2018-06-12T18:22:10.323Z,90.20
2018-06-12T18:24:38.756Z,90.20
2018-06-12T18:27:07.423Z,90.30
2018-06-12T18:29:36.044Z,90.30
2018-06-12T18:32:04.506Z,89.90
2018-06-12T18:34:33.034Z,90.00
2018-06-12T18:37:01.546Z,90.00
2018-06-12T18:39:30.035Z,90.00
2018-06-12T18:41:58.464Z,90.00
2018-06-12T18:44:27.723Z,90.00
2018-06-12T18:46:56.586Z,89.30
2018-06-12T18:49:25.756Z,89.50
2018-06-12T18:51:54.271Z,89.80
2018-06-12T18:54:23.229Z,89.50
2018-06-12T18:56:51.773Z,89.70
2018-06-12T18:59:20.266Z,89.70
2018-06-12T19:01:48.732Z,90.00
2018-06-12T19:04:17.185Z,89.20
2018-06-12T19:06:45.785Z,89.80
2018-06-12T19:09:14.453Z,89.20
2018-06-12T19:11:43.108Z,88.80
2018-06-12T19:14:11.648Z,88.10
2018-06-12T19:16:40.148Z,88.50
2018-06-12T19:19:08.678Z,88.40
2018-06-12T19:21:37.219Z,89.30
2018-06-12T19:24:06.005Z,89.20
2018-06-12T19:26:34.458Z,88.70
2018-06-12T19:29:03.199Z,89.30
2018-06-12T19:31:31.639Z,89.30
2018-06-12T19:34:00.174Z,89.40
2018-06-12T19:36:28.598Z,89.60
2018-06-12T19:38:57.174Z,89.60
2018-06-12T19:41:27.001Z,88.20
2018-06-12T19:43:55.588Z,87.50
2018-06-12T19:46:24.043Z,87.50
2018-06-12T19:48:52.714Z,87.00
2018-06-12T19:51:21.374Z,87.40
2018-06-12T19:53:49.960Z,87.20
2018-06-12T19:56:18.599Z,88.30
2018-06-12T19:58:47.117Z,88.80
2018-06-12T20:01:15.587Z,88.40
2018-06-12T20:03:44.113Z,88.20
2018-06-12T20:06:12.636Z,88.30
2018-06-12T20:08:41.403Z,88.70
2018-06-12T20:11:09.932Z,88.90
2018-06-12T20:13:38.665Z,89.70
2018-06-12T20:16:07.228Z,89.40
2018-06-12T20:18:35.721Z,89.30
2018-06-12T20:21:04.283Z,89.80
2018-06-12T20:23:33.155Z,89.50
2018-06-12T20:26:01.643Z,88.30
2018-06-12T20:28:30.098Z,88.50
2018-06-12T20:30:58.554Z,88.80
2018-06-12T20:33:27.170Z,88.20
2018-06-12T20:35:55.685Z,88.10
2018-06-12T20:38:24.425Z,88.00
2018-06-12T20:40:52.935Z,87.20
2018-06-12T20:43:22.420Z,87.40
2018-06-12T20:45:50.892Z,87.90
2018-06-12T20:48:19.404Z,87.70
2018-06-12T20:50:47.864Z,88.30
2018-06-12T20:53:16.372Z,87.90
2018-06-12T20:55:44.978Z,88.10
2018-06-12T20:58:15.260Z,87.90
2018-06-12T21:00:43.794Z,88.10
2018-06-12T21:03:12.325Z,88.50
2018-06-12T21:05:40.968Z,88.60
2018-06-12T21:08:09.604Z,88.60
2018-06-12T21:10:38.259Z,88.70
2018-06-12T21:13:06.793Z,88.30
2018-06-12T21:15:35.299Z,88.10
2018-06-12T21:18:04.459Z,88.40
2018-06-12T21:20:33.231Z,88.50
2018-06-12T21:23:01.727Z,88.40
2018-06-12T21:25:30.281Z,88.30
2018-06-12T21:27:58.918Z,88.30
2018-06-12T21:30:27.415Z,87.90
2018-06-12T21:32:55.932Z,88.00
2018-06-12T21:35:24.382Z,88.00
2018-06-12T21:37:52.901Z,87.50
2018-06-12T21:40:21.468Z,87.70
2018-06-12T21:42:50.020Z,88.40
2018-06-12T21:45:18.456Z,88.00
2018-06-12T21:47:47.028Z,88.10
2018-06-12T21:50:15.604Z,88.10
2018-06-12T21:52:44.224Z,88.30
2018-06-12T21:55:12.736Z,88.50
2018-06-12T21:57:41.293Z,88.40
2018-06-12T22:00:09.832Z,88.00
2018-06-12T22:02:38.852Z,88.20
2018-06-12T22:05:07.459Z,88.50
2018-06-12T22:07:36.061Z,88.60
2018-06-12T22:10:04.949Z,87.30
2018-06-12T22:12:34.199Z,88.60
2018-06-12T22:15:03.362Z,88.80
2018-06-12T22:20:00.053Z,88.30
2018-06-12T22:22:28.646Z,88.20
2018-06-12T22:24:57.125Z,88.30
2018-06-12T22:27:25.631Z,88.10
2018-06-12T22:29:54.185Z,88.40
2018-06-12T22:32:22.836Z,88.40
2018-06-12T22:34:51.542Z,89.10
2018-06-12T22:37:20.601Z,87.40
2018-06-12T22:39:49.039Z,88.00
2018-06-12T22:42:17.678Z,88.00
2018-06-12T22:44:46.201Z,88.30
2018-06-12T22:47:14.761Z,87.70
2018-06-12T22:49:43.244Z,87.70
2018-06-12T22:52:11.805Z,87.50
2018-06-12T22:54:40.294Z,86.70
2018-06-12T22:57:08.853Z,86.20
2018-06-12T22:59:37.325Z,86.10
2018-06-12T23:02:06.160Z,86.20
2018-06-12T23:04:35.338Z,86.50
2018-06-12T23:07:04.581Z,86.90
2018-06-12T23:09:33.447Z,86.90
2018-06-12T23:12:02.078Z,86.40
2018-06-12T23:14:31.219Z,86.10
2018-06-12T23:16:59.678Z,85.70
2018-06-12T23:19:28.377Z,86.30
2018-06-12T23:22:00.526Z,85.50
2018-06-12T23:24:29.060Z,86.40
2018-06-12T23:26:57.661Z,86.50
2018-06-12T23:29:26.216Z,86.10
2018-06-12T23:31:54.731Z,85.80
2018-06-12T23:34:23.447Z,85.70
2018-06-12T23:36:51.858Z,85.60
2018-06-12T23:39:20.513Z,85.20
2018-06-12T23:41:49.197Z,83.60
2018-06-12T23:44:17.712Z,85.40
2018-06-12T23:46:46.191Z,85.40
2018-06-12T23:49:14.924Z,84.80
2018-06-12T23:51:43.399Z,85.10
2018-06-12T23:54:12.019Z,85.30
2018-06-12T23:56:40.531Z,85.30
2018-06-12T23:59:09.217Z,85.50
